createdAt,value
2019-01-04T00:01:42.616Z,11.75
2019-01-04T00:04:15.745Z,13.45
2019-01-04T00:06:45.833Z,13.13
2019-01-04T00:09:18.949Z,12.45
2019-01-04T00:11:49.057Z,12.70
2019-01-04T00:14:19.283Z,13.13
2019-01-04T00:16:49.385Z,11.57
2019-01-04T00:19:22.505Z,12.13
2019-01-04T00:21:52.658Z,13.75
2019-01-04T00:24:23.817Z,11.70
2019-01-04T00:26:53.969Z,13.32
2019-01-04T00:29:24.082Z,12.33
2019-01-04T00:31:55.434Z,12.47
2019-01-04T00:34:25.525Z,11.80
2019-01-04T00:36:56.619Z,13.30
2019-01-04T00:39:33.072Z,12.00
2019-01-04T00:42:03.147Z,12.05
2019-01-04T00:44:42.410Z,11.10
2019-01-04T00:47:17.455Z,12.73
2019-01-04T00:49:48.517Z,12.43
2019-01-04T00:52:18.626Z,12.65
2019-01-04T00:54:53.689Z,15.10
2019-01-04T00:57:49.178Z,13.10
2019-01-04T01:00:59.937Z,15.30
2019-01-04T01:03:57.057Z,12.88
2019-01-04T01:07:05.641Z,11.95
2019-01-04T01:10:01.010Z,13.18
2019-01-04T01:12:59.974Z,12.15
2019-01-04T01:15:50.104Z,11.73
2019-01-04T01:18:39.496Z,11.85
2019-01-04T01:21:38.009Z,14.05
2019-01-04T01:24:48.953Z,14.33
2019-01-04T01:27:46.505Z,13.95
2019-01-04T01:30:24.290Z,14.13
2019-01-04T01:33:03.106Z,15.05
2019-01-04T01:36:13.238Z,14.00
2019-01-04T01:39:25.573Z,15.75
2019-01-04T01:42:38.341Z,12.82
2019-01-04T01:45:41.613Z,14.83
2019-01-04T01:48:22.023Z,14.83
2019-01-04T01:51:20.980Z,13.93
2019-01-04T01:53:51.171Z,13.22
2019-01-04T01:56:23.934Z,13.83
2019-01-04T01:58:55.933Z,14.13
2019-01-04T02:01:26.030Z,16.05
2019-01-04T02:03:57.065Z,13.40
2019-01-04T02:06:27.180Z,14.87
2019-01-04T02:08:58.242Z,15.90
2019-01-04T02:11:28.342Z,14.38
2019-01-04T02:13:58.442Z,15.85
2019-01-04T02:16:28.541Z,15.48
2019-01-04T02:18:58.626Z,16.17
2019-01-04T02:21:31.915Z,14.28
2019-01-04T02:24:02.014Z,16.23
2019-01-04T02:26:40.129Z,15.20
2019-01-04T02:29:12.958Z,15.85
2019-01-04T02:31:44.263Z,15.98
2019-01-04T02:34:14.494Z,17.00
2019-01-04T02:36:44.579Z,14.98
2019-01-04T02:39:16.633Z,17.27
2019-01-04T02:41:53.530Z,17.23
2019-01-04T02:44:24.764Z,16.95
2019-01-04T02:46:57.953Z,16.35
2019-01-04T02:49:28.050Z,16.48
2019-01-04T02:51:58.142Z,17.00
2019-01-04T02:54:31.283Z,16.55
2019-01-04T02:57:01.380Z,16.87
2019-01-04T02:59:31.479Z,16.93
2019-01-04T03:02:08.319Z,17.67
2019-01-04T03:04:38.402Z,17.77
2019-01-04T03:07:08.520Z,17.17
2019-01-04T03:09:38.607Z,16.55
2019-01-04T03:12:10.642Z,15.90
2019-01-04T03:14:41.654Z,18.00
2019-01-04T03:17:12.692Z,16.20
2019-01-04T03:19:42.814Z,17.00
2019-01-04T03:22:18.966Z,16.90
2019-01-04T03:24:52.950Z,15.98
2019-01-04T03:27:31.403Z,19.40
2019-01-04T03:30:02.582Z,17.45
2019-01-04T03:32:33.671Z,16.77
2019-01-04T03:35:03.755Z,16.85
2019-01-04T03:37:34.874Z,17.35
2019-01-04T03:40:08.575Z,19.17
2019-01-04T03:42:38.703Z,18.92
2019-01-04T03:45:19.829Z,16.75
2019-01-04T03:47:50.942Z,16.40
2019-01-04T03:50:22.039Z,17.80
2019-01-04T03:52:52.137Z,18.98
2019-01-04T03:55:22.230Z,19.23
2019-01-04T03:57:52.318Z,17.48
2019-01-04T04:00:22.410Z,20.23
2019-01-04T04:02:52.530Z,18.50
2019-01-04T04:05:22.617Z,18.73
2019-01-04T04:07:54.703Z,18.57
2019-01-04T04:10:25.970Z,18.67
2019-01-04T04:12:56.134Z,18.92
2019-01-04T04:15:26.220Z,18.02
2019-01-04T04:17:58.267Z,18.98
2019-01-04T04:20:28.375Z,18.87
2019-01-04T04:22:58.502Z,17.32
2019-01-04T04:25:28.606Z,18.32
2019-01-04T04:27:59.171Z,18.82
2019-01-04T04:30:31.183Z,20.60
2019-01-04T04:33:03.246Z,20.77
2019-01-04T04:35:34.286Z,18.75
2019-01-04T04:38:04.374Z,19.90
2019-01-04T04:40:35.485Z,21.85
2019-01-04T04:43:05.567Z,19.27
2019-01-04T04:45:35.663Z,21.82
2019-01-04T04:48:12.103Z,20.85
2019-01-04T04:50:42.217Z,19.95
2019-01-04T04:53:12.310Z,21.73
2019-01-04T04:55:44.418Z,21.40
2019-01-04T04:58:20.546Z,22.05
2019-01-04T05:00:50.639Z,20.65
2019-01-04T05:03:22.706Z,20.27
2019-01-04T05:06:04.805Z,20.92
2019-01-04T05:08:34.943Z,21.10
2019-01-04T05:11:05.963Z,18.92
2019-01-04T05:13:36.094Z,20.97
2019-01-04T05:16:06.184Z,20.88
2019-01-04T05:18:36.265Z,20.60
2019-01-04T05:21:06.358Z,20.77
2019-01-04T05:23:37.390Z,21.20
2019-01-04T05:26:08.398Z,20.30
2019-01-04T05:28:40.730Z,20.55
2019-01-04T05:31:11.822Z,21.12
2019-01-04T05:33:41.979Z,20.92
2019-01-04T05:36:12.115Z,20.57
2019-01-04T05:38:42.258Z,18.30
2019-01-04T05:41:12.422Z,20.55
2019-01-04T05:43:42.489Z,21.42
2019-01-04T05:46:13.560Z,22.60
2019-01-04T05:48:43.646Z,21.60
2019-01-04T05:51:13.758Z,19.25
2019-01-04T05:53:43.834Z,21.10
2019-01-04T05:56:13.930Z,20.62
2019-01-04T05:58:44.034Z,21.07
2019-01-04T06:01:14.159Z,21.90
2019-01-04T06:03:44.258Z,22.42
2019-01-04T06:06:14.362Z,21.62
2019-01-04T06:08:50.254Z,21.90
2019-01-04T06:11:21.353Z,20.77
2019-01-04T06:13:51.426Z,21.62
2019-01-04T06:16:21.530Z,22.20
2019-01-04T06:18:52.594Z,21.60
2019-01-04T06:21:22.688Z,23.47
2019-01-04T06:23:53.085Z,25.32
2019-01-04T06:26:23.207Z,27.80
2019-01-04T06:28:53.265Z,25.92
2019-01-04T06:31:24.541Z,26.87
2019-01-04T06:33:54.862Z,20.90
2019-01-04T06:36:24.948Z,18.42
2019-01-04T06:38:55.048Z,20.62
2019-01-04T06:41:25.142Z,20.80
2019-01-04T06:43:55.250Z,19.05
2019-01-04T06:46:26.334Z,23.80
2019-01-04T06:48:56.426Z,20.17
2019-01-04T06:51:27.962Z,18.70
2019-01-04T06:53:58.130Z,18.70
2019-01-04T06:56:28.218Z,22.65
2019-01-04T06:58:58.306Z,21.30
2019-01-04T07:01:29.428Z,20.02
2019-01-04T07:03:59.543Z,21.97
2019-01-04T07:06:29.666Z,21.25
2019-01-04T07:08:59.750Z,20.52
2019-01-04T07:11:29.838Z,21.62
2019-01-04T07:14:00.947Z,20.65
2019-01-04T07:16:31.102Z,21.52
2019-01-04T07:19:01.170Z,21.57
2019-01-04T07:21:31.258Z,21.23
2019-01-04T07:24:01.350Z,20.17
2019-01-04T07:26:31.454Z,19.20
2019-01-04T07:29:01.578Z,18.82
2019-01-04T07:31:31.683Z,19.30
2019-01-04T07:34:02.694Z,20.02
2019-01-04T07:36:33.735Z,20.32
2019-01-04T07:39:05.750Z,19.25
2019-01-04T07:41:37.768Z,19.92
2019-01-04T07:44:08.798Z,20.05
2019-01-04T07:46:38.886Z,19.37
2019-01-04T07:49:11.994Z,21.25
2019-01-04T07:51:43.031Z,21.00
2019-01-04T07:54:13.130Z,21.00
2019-01-04T07:56:49.238Z,20.88
2019-01-04T07:59:30.578Z,20.20
2019-01-04T08:02:04.643Z,20.57
2019-01-04T08:04:34.723Z,18.87
2019-01-04T08:07:06.831Z,20.72
2019-01-04T08:09:36.954Z,20.90
2019-01-04T08:12:09.042Z,19.32
2019-01-04T08:14:40.206Z,19.98
2019-01-04T08:17:10.774Z,20.08
2019-01-04T08:19:41.786Z,21.50
2019-01-04T08:22:11.954Z,20.15
2019-01-04T08:24:42.065Z,20.25
2019-01-04T08:27:14.824Z,21.70
2019-01-04T08:29:52.014Z,19.17
2019-01-04T08:32:23.090Z,19.77
2019-01-04T08:34:54.254Z,18.50
2019-01-04T08:37:25.310Z,20.25
2019-01-04T08:40:02.650Z,18.73
2019-01-04T08:42:33.811Z,19.17
2019-01-04T08:45:10.790Z,17.42
2019-01-04T08:47:41.014Z,16.82
2019-01-04T08:50:13.069Z,18.37
2019-01-04T08:52:44.328Z,19.62
2019-01-04T08:55:17.442Z,20.45
2019-01-04T08:57:48.526Z,20.72
2019-01-04T09:00:19.311Z,17.30
2019-01-04T09:02:49.434Z,20.32
2019-01-04T09:05:19.586Z,19.12
2019-01-04T09:07:49.906Z,20.80
2019-01-04T09:10:19.994Z,18.90
2019-01-04T09:12:50.082Z,21.35
2019-01-04T09:15:20.166Z,20.15
2019-01-04T09:17:52.911Z,20.82
2019-01-04T09:20:29.282Z,18.07
2019-01-04T09:22:59.378Z,17.42
2019-01-04T09:25:34.549Z,19.77
2019-01-04T09:28:05.575Z,20.95
2019-01-04T09:30:39.619Z,22.85
2019-01-04T09:33:09.801Z,19.98
2019-01-04T09:35:40.102Z,16.97
2019-01-04T09:38:11.206Z,17.42
2019-01-04T09:40:45.398Z,17.25
2019-01-04T09:43:16.562Z,22.35
2019-01-04T09:45:46.698Z,17.80
2019-01-04T09:48:18.034Z,18.73
2019-01-04T09:50:48.186Z,16.15
2019-01-04T09:53:26.147Z,17.60
2019-01-04T09:55:56.234Z,17.10
2019-01-04T09:58:28.286Z,15.90
2019-01-04T10:00:58.435Z,17.62
2019-01-04T10:03:37.820Z,18.20
2019-01-04T10:06:08.017Z,16.02
2019-01-04T10:08:44.765Z,15.78
2019-01-04T10:11:12.711Z,16.20
2019-01-04T10:13:43.850Z,14.98
2019-01-04T10:16:13.931Z,16.40
2019-01-04T10:18:44.046Z,14.43
2019-01-04T10:21:15.096Z,14.07
2019-01-04T10:23:45.183Z,16.15
2019-01-04T10:26:15.303Z,16.70
2019-01-04T10:28:50.002Z,14.15
2019-01-04T10:31:20.154Z,14.33
2019-01-04T10:33:52.182Z,15.32
2019-01-04T10:36:23.290Z,15.88
2019-01-04T10:38:55.350Z,14.93
2019-01-04T10:41:26.329Z,14.25
2019-01-04T10:43:56.482Z,15.55
2019-01-04T10:46:26.654Z,16.07
2019-01-04T10:48:57.630Z,13.45
2019-01-04T10:51:31.742Z,13.90
2019-01-04T10:54:01.930Z,13.48
2019-01-04T10:56:33.862Z,14.43
2019-01-04T10:59:13.030Z,13.78
2019-01-04T11:01:46.106Z,13.18
2019-01-04T11:04:18.202Z,13.40
2019-01-04T11:06:51.675Z,13.60
2019-01-04T11:09:22.759Z,15.10
2019-01-04T11:11:54.686Z,12.60
2019-01-04T11:14:24.834Z,13.13
2019-01-04T11:16:57.545Z,12.10
2019-01-04T11:19:28.622Z,13.65
2019-01-04T11:22:49.762Z,13.43
2019-01-04T11:25:51.832Z,10.60
2019-01-04T11:28:48.170Z,13.35
2019-01-04T11:31:22.926Z,12.15
2019-01-04T11:34:03.322Z,11.88
2019-01-04T11:37:17.342Z,12.80
2019-01-04T11:40:19.370Z,11.60
2019-01-04T11:43:05.834Z,11.83
2019-01-04T11:45:57.910Z,12.03
2019-01-04T11:48:42.118Z,11.60
2019-01-04T11:51:54.575Z,10.85
2019-01-04T11:54:24.687Z,11.15
2019-01-04T11:57:01.682Z,11.80
2019-01-04T11:59:31.766Z,11.65
2019-01-04T12:02:05.038Z,9.75
2019-01-04T12:04:35.998Z,12.13
2019-01-04T12:07:06.070Z,9.75
2019-01-04T12:09:36.142Z,10.95
2019-01-04T12:12:06.247Z,11.20
2019-01-04T12:14:45.174Z,10.68
2019-01-04T12:17:16.226Z,10.78
2019-01-04T12:19:46.310Z,11.63
2019-01-04T12:22:16.378Z,9.70
2019-01-04T12:24:47.385Z,11.08
2019-01-04T12:27:18.410Z,9.95
2019-01-04T12:29:49.478Z,10.53
2019-01-04T12:32:20.450Z,10.30
2019-01-04T12:34:50.550Z,8.95
2019-01-04T12:37:22.574Z,10.08
2019-01-04T12:39:52.754Z,9.60
2019-01-04T12:42:26.134Z,11.10
2019-01-04T12:44:56.214Z,11.80
2019-01-04T12:47:27.266Z,10.90
2019-01-04T12:49:57.358Z,10.68
2019-01-04T12:52:27.506Z,12.73
2019-01-04T12:54:58.546Z,13.35
2019-01-04T12:57:29.873Z,9.60
2019-01-04T12:59:59.950Z,13.35
2019-01-04T13:02:30.044Z,12.65
2019-01-04T13:05:00.161Z,11.20
2019-01-04T13:07:30.218Z,10.58
2019-01-04T13:10:00.310Z,12.25
2019-01-04T13:12:30.401Z,10.45
2019-01-04T13:15:00.508Z,12.82
2019-01-04T13:17:30.627Z,13.85
2019-01-04T13:20:01.006Z,11.38
2019-01-04T13:22:37.294Z,12.05
2019-01-04T13:25:07.842Z,11.15
2019-01-04T13:27:37.922Z,10.63
2019-01-04T13:30:12.122Z,11.08
2019-01-04T13:32:44.079Z,11.10
2019-01-04T13:35:15.130Z,11.28
2019-01-04T13:37:45.254Z,14.38
2019-01-04T13:40:21.260Z,10.35
2019-01-04T13:42:51.486Z,9.90
2019-01-04T13:45:22.434Z,10.23
2019-01-04T13:47:53.438Z,11.20
2019-01-04T13:50:25.190Z,10.40
2019-01-04T13:53:09.558Z,9.60
2019-01-04T13:55:39.742Z,11.38
2019-01-04T13:58:09.839Z,12.33
2019-01-04T14:00:40.838Z,12.35
2019-01-04T14:03:13.758Z,12.03
2019-01-04T14:05:46.346Z,12.35
2019-01-04T14:08:16.442Z,13.45
2019-01-04T14:10:48.382Z,12.33
2019-01-04T14:13:32.728Z,11.90
2019-01-04T14:16:08.806Z,11.30
2019-01-04T14:18:40.008Z,10.28
2019-01-04T14:21:10.086Z,11.33
2019-01-04T14:23:40.179Z,9.80
2019-01-04T14:26:11.175Z,10.60
2019-01-04T14:28:41.298Z,10.10
2019-01-04T14:31:19.594Z,10.90
2019-01-04T14:33:50.678Z,11.70
2019-01-04T14:36:20.766Z,10.23
2019-01-04T14:38:50.848Z,10.65
2019-01-04T14:41:23.413Z,9.73
2019-01-04T14:43:53.683Z,10.93
2019-01-04T14:46:31.708Z,11.12
2019-01-04T14:49:14.736Z,10.65
2019-01-04T14:51:44.762Z,11.22
2019-01-04T14:54:15.858Z,12.00
2019-01-04T14:56:52.864Z,10.60
2019-01-04T14:59:23.947Z,10.93
2019-01-04T15:01:54.047Z,12.15
2019-01-04T15:04:28.147Z,12.85
2019-01-04T15:07:00.218Z,12.50
2019-01-04T15:09:32.274Z,11.80
2019-01-04T15:12:09.142Z,11.88
2019-01-04T15:14:39.259Z,10.18
2019-01-04T15:17:15.812Z,10.95
2019-01-04T15:19:50.066Z,13.35
2019-01-04T15:22:20.366Z,14.00
2019-01-04T15:24:50.445Z,11.75
2019-01-04T15:27:20.754Z,12.70
2019-01-04T15:29:51.824Z,12.65
2019-01-04T15:32:27.715Z,13.03
2019-01-04T15:34:58.946Z,12.15
2019-01-04T15:37:31.216Z,11.10
2019-01-04T15:40:03.363Z,11.78
2019-01-04T15:42:38.534Z,11.45
2019-01-04T15:45:14.467Z,12.15
2019-01-04T15:47:45.600Z,12.43
2019-01-04T15:50:15.684Z,12.47
2019-01-04T15:52:45.911Z,12.05
2019-01-04T15:55:16.068Z,12.28
2019-01-04T15:57:52.951Z,13.32
2019-01-04T16:00:30.947Z,13.62
2019-01-04T16:03:02.024Z,14.60
2019-01-04T16:05:32.216Z,15.23
2019-01-04T16:08:02.294Z,17.25
2019-01-04T16:10:33.525Z,15.00
2019-01-04T16:13:03.739Z,12.65
2019-01-04T16:15:36.903Z,16.57
2019-01-04T16:18:06.991Z,13.18
2019-01-04T16:20:46.847Z,13.80
2019-01-04T16:23:17.922Z,14.73
2019-01-04T16:25:48.042Z,15.83
2019-01-04T16:28:19.119Z,14.73
2019-01-04T16:30:49.207Z,14.25
2019-01-04T16:33:20.241Z,16.05
2019-01-04T16:35:50.364Z,13.75
2019-01-04T16:38:24.101Z,14.33
2019-01-04T16:40:55.519Z,16.07
2019-01-04T16:43:25.610Z,15.03
2019-01-04T16:45:55.716Z,15.13
2019-01-04T16:48:25.931Z,18.32
2019-01-04T16:50:56.191Z,20.40
2019-01-04T16:53:26.331Z,17.02
2019-01-04T16:56:04.222Z,15.93
2019-01-04T16:58:40.020Z,16.93
2019-01-04T17:01:11.194Z,15.08
2019-01-04T17:03:42.511Z,15.75
2019-01-04T17:06:12.611Z,17.50
2019-01-04T17:08:42.712Z,16.37
2019-01-04T17:11:15.271Z,27.42
2019-01-04T17:13:46.319Z,16.30
2019-01-04T17:16:16.487Z,17.73
2019-01-04T17:18:46.622Z,18.75
2019-01-04T17:21:19.624Z,18.07
2019-01-04T17:23:49.707Z,16.95
2019-01-04T17:26:26.611Z,16.40
2019-01-04T17:29:02.779Z,14.95
2019-01-04T17:31:33.012Z,17.98
2019-01-04T17:34:03.168Z,17.90
2019-01-04T17:36:39.998Z,20.25
2019-01-04T17:39:10.346Z,20.17
2019-01-04T17:41:46.407Z,21.60
2019-01-04T17:44:22.479Z,20.00
2019-01-04T17:46:52.579Z,20.85
2019-01-04T17:49:23.567Z,21.05
2019-01-04T17:51:54.672Z,20.75
2019-01-04T17:54:24.895Z,20.12
2019-01-04T17:56:56.959Z,19.37
2019-01-04T17:59:32.959Z,17.92
2019-01-04T18:02:10.091Z,20.02
2019-01-04T18:04:40.207Z,21.87
2019-01-04T18:07:12.349Z,20.72
2019-01-04T18:09:42.571Z,19.45
2019-01-04T18:12:12.727Z,21.60
2019-01-04T18:14:42.820Z,22.22
2019-01-04T18:17:14.203Z,23.45
2019-01-04T18:19:45.199Z,19.42
2019-01-04T18:22:16.346Z,19.77
2019-01-04T18:24:47.371Z,19.98
2019-01-04T18:27:17.472Z,20.55
2019-01-04T18:29:50.763Z,18.95
2019-01-04T18:32:21.839Z,20.05
2019-01-04T18:34:53.107Z,20.77
2019-01-04T18:37:23.332Z,23.62
2019-01-04T18:39:53.477Z,23.20
2019-01-04T18:42:23.639Z,24.00
2019-01-04T18:44:53.725Z,22.30
2019-01-04T18:47:24.614Z,19.65
2019-01-04T18:49:54.736Z,21.17
2019-01-04T18:52:25.835Z,23.52
2019-01-04T18:54:55.987Z,22.75
2019-01-04T18:57:28.047Z,23.25
2019-01-04T19:00:00.165Z,24.12
2019-01-04T19:02:31.315Z,24.80
2019-01-04T19:05:01.403Z,24.57
2019-01-04T19:07:36.271Z,22.85
2019-01-04T19:10:10.943Z,25.35
2019-01-04T19:12:41.107Z,23.05
2019-01-04T19:15:11.806Z,22.70
2019-01-04T19:17:41.937Z,28.70
2019-01-04T19:20:13.099Z,24.20
2019-01-04T19:22:44.107Z,21.48
2019-01-04T19:25:14.282Z,22.05
2019-01-04T19:27:47.235Z,22.22
2019-01-04T19:30:17.351Z,23.45
2019-01-04T19:32:49.419Z,19.77
2019-01-04T19:35:19.503Z,23.07
2019-01-04T19:37:51.067Z,22.93
2019-01-04T19:40:28.249Z,19.65
2019-01-04T19:43:00.286Z,23.62
2019-01-04T19:45:32.335Z,22.17
2019-01-04T19:48:02.531Z,24.95
2019-01-04T19:50:33.619Z,21.95
2019-01-04T19:53:03.723Z,24.05
2019-01-04T19:55:34.769Z,22.30
2019-01-04T19:58:04.884Z,23.07
2019-01-04T20:00:34.957Z,22.17
2019-01-04T20:03:11.791Z,19.67
2019-01-04T20:06:30.613Z,22.45
2019-01-04T20:09:35.144Z,31.30
2019-01-04T20:13:06.811Z,21.07
2019-01-04T20:16:02.197Z,25.02
2019-01-04T20:18:34.035Z,23.18
2019-01-04T20:21:10.002Z,21.35
2019-01-04T20:23:50.719Z,21.70
2019-01-04T20:26:25.815Z,26.30
2019-01-04T20:29:21.039Z,23.05
2019-01-04T20:32:08.847Z,24.37
2019-01-04T20:34:44.950Z,25.50
2019-01-04T20:37:34.595Z,23.62
2019-01-04T20:40:20.287Z,23.80
2019-01-04T20:43:20.853Z,22.60
2019-01-04T20:45:52.563Z,24.15
2019-01-04T20:48:24.295Z,25.00
2019-01-04T20:51:07.955Z,24.37
2019-01-04T20:53:54.366Z,25.52
2019-01-04T20:56:45.439Z,23.02
2019-01-04T20:59:23.167Z,25.32
2019-01-04T21:01:57.637Z,25.08
2019-01-04T21:04:31.995Z,24.47
2019-01-04T21:07:05.643Z,23.52
2019-01-04T21:09:47.167Z,24.98
2019-01-04T21:12:35.251Z,23.85
2019-01-04T21:15:15.917Z,26.07
2019-01-04T21:17:55.373Z,23.85
2019-01-04T21:20:43.139Z,23.87
2019-01-04T21:23:20.613Z,22.10
2019-01-04T21:26:08.219Z,24.65
2019-01-04T21:28:50.551Z,21.90
2019-01-04T21:31:40.812Z,25.30
2019-01-04T21:34:25.320Z,25.08
2019-01-04T21:37:12.971Z,22.50
2019-01-04T21:39:47.221Z,24.30
2019-01-04T21:42:18.947Z,22.00
2019-01-04T21:44:57.785Z,23.00
2019-01-04T21:47:39.847Z,22.15
2019-01-04T21:50:14.659Z,24.75
2019-01-04T21:53:01.601Z,22.65
2019-01-04T21:55:34.316Z,23.05
2019-01-04T21:58:12.196Z,24.37
2019-01-04T22:00:48.675Z,23.10
2019-01-04T22:03:37.499Z,24.55
2019-01-04T22:06:10.219Z,20.20
2019-01-04T22:08:58.192Z,24.45
2019-01-04T22:11:39.783Z,24.35
2019-01-04T22:14:23.625Z,25.55
2019-01-04T22:17:05.819Z,23.35
2019-01-04T22:19:44.401Z,20.17
2019-01-04T22:22:22.428Z,20.70
2019-01-04T22:25:09.327Z,18.98
2019-01-04T22:28:05.069Z,21.42
2019-01-04T22:30:37.741Z,18.87
2019-01-04T22:33:14.952Z,20.48
2019-01-04T22:35:55.326Z,19.75
2019-01-04T22:38:43.291Z,20.02
2019-01-04T22:41:15.052Z,21.68
2019-01-04T22:43:46.776Z,20.95
2019-01-04T22:46:30.215Z,23.42
2019-01-04T22:49:17.984Z,17.77
2019-01-04T22:52:10.036Z,20.50
2019-01-04T22:54:50.487Z,22.60
2019-01-04T22:57:27.903Z,19.62
2019-01-04T23:00:10.268Z,21.87
2019-01-04T23:02:48.168Z,20.88
2019-01-04T23:05:38.811Z,21.75
2019-01-04T23:08:27.911Z,21.55
2019-01-04T23:11:25.527Z,19.90
2019-01-04T23:13:59.947Z,23.00
2019-01-04T23:16:49.083Z,21.77
2019-01-04T23:19:36.842Z,22.70
2019-01-04T23:22:17.510Z,22.27
2019-01-04T23:24:55.247Z,22.87
2019-01-04T23:27:34.045Z,22.70
2019-01-04T23:30:13.029Z,19.17
2019-01-04T23:32:45.719Z,23.15
2019-01-04T23:35:33.272Z,23.07
2019-01-04T23:38:17.372Z,22.52
2019-01-04T23:41:10.229Z,23.22
2019-01-04T23:43:58.268Z,23.87
2019-01-04T23:46:56.917Z,23.22
2019-01-04T23:49:37.552Z,22.00
2019-01-04T23:52:26.528Z,24.05
2019-01-04T23:55:10.471Z,23.80
2019-01-04T23:57:43.104Z,23.77
